sensor_id;sensor_type;location;lat;lon;timestamp;P1;durP1;ratioP1;P2;durP2;ratioP2
25868;SDS011;13688;53.154;18.136;2022-09-14T00:05:14;25.70;;;20.07;;
25868;SDS011;13688;53.154;18.136;2022-09-14T00:10:37;25.55;;;20.08;;
25868;SDS011;13688;53.154;18.136;2022-09-14T00:16:02;25.52;;;20.17;;
25868;SDS011;13688;53.154;18.136;2022-09-14T00:21:27;23.87;;;19.42;;
25868;SDS011;13688;53.154;18.136;2022-09-14T00:26:51;29.18;;;19.75;;
25868;SDS011;13688;53.154;18.136;2022-09-14T00:32:14;25.62;;;18.82;;
25868;SDS011;13688;53.154;18.136;2022-09-14T00:37:36;22.45;;;17.35;;
25868;SDS011;13688;53.154;18.136;2022-09-14T00:42:59;21.50;;;17.23;;
25868;SDS011;13688;53.154;18.136;2022-09-14T00:48:24;22.20;;;17.27;;
25868;SDS011;13688;53.154;18.136;2022-09-14T00:53:47;20.72;;;16.15;;
25868;SDS011;13688;53.154;18.136;2022-09-14T00:59:13;19.27;;;15.50;;
25868;SDS011;13688;53.154;18.136;2022-09-14T01:04:38;21.97;;;16.67;;
25868;SDS011;13688;53.154;18.136;2022-09-14T01:15:49;21.73;;;16.35;;
25868;SDS011;13688;53.154;18.136;2022-09-14T01:21:55;20.37;;;16.17;;
25868;SDS011;13688;53.154;18.136;2022-09-14T01:26:51;22.13;;;16.65;;
25868;SDS011;13688;53.154;18.136;2022-09-14T01:32:30;20.97;;;15.88;;
25868;SDS011;13688;53.154;18.136;2022-09-14T01:44:00;20.70;;;16.60;;
25868;SDS011;13688;53.154;18.136;2022-09-14T02:00:20;20.55;;;15.13;;
25868;SDS011;13688;53.154;18.136;2022-09-14T02:06:03;18.60;;;14.50;;
25868;SDS011;13688;53.154;18.136;2022-09-14T02:11:31;20.20;;;15.45;;
25868;SDS011;13688;53.154;18.136;2022-09-14T02:16:55;20.65;;;15.75;;
25868;SDS011;13688;53.154;18.136;2022-09-14T02:22:17;24.52;;;15.00;;
25868;SDS011;13688;53.154;18.136;2022-09-14T02:27:44;17.85;;;13.58;;
25868;SDS011;13688;53.154;18.136;2022-09-14T02:33:09;19.92;;;13.43;;
25868;SDS011;13688;53.154;18.136;2022-09-14T02:39:00;16.80;;;12.73;;
25868;SDS011;13688;53.154;18.136;2022-09-14T02:44:32;17.65;;;12.93;;
25868;SDS011;13688;53.154;18.136;2022-09-14T02:55:37;13.35;;;10.53;;
25868;SDS011;13688;53.154;18.136;2022-09-14T03:01:11;19.77;;;12.80;;
25868;SDS011;13688;53.154;18.136;2022-09-14T03:06:35;19.00;;;12.73;;
25868;SDS011;13688;53.154;18.136;2022-09-14T03:11:58;15.87;;;12.70;;
25868;SDS011;13688;53.154;18.136;2022-09-14T03:17:20;16.93;;;12.67;;
25868;SDS011;13688;53.154;18.136;2022-09-14T03:22:43;16.30;;;12.50;;
25868;SDS011;13688;53.154;18.136;2022-09-14T03:28:07;15.33;;;12.80;;
25868;SDS011;13688;53.154;18.136;2022-09-14T03:33:30;19.53;;;12.80;;
25868;SDS011;13688;53.154;18.136;2022-09-14T03:38:55;15.33;;;12.03;;
25868;SDS011;13688;53.154;18.136;2022-09-14T03:44:16;14.27;;;11.27;;
25868;SDS011;13688;53.154;18.136;2022-09-14T03:49:38;16.10;;;11.60;;
25868;SDS011;13688;53.154;18.136;2022-09-14T03:55:01;16.77;;;12.15;;
25868;SDS011;13688;53.154;18.136;2022-09-14T04:00:25;18.30;;;11.65;;
25868;SDS011;13688;53.154;18.136;2022-09-14T04:05:55;17.20;;;11.70;;
25868;SDS011;13688;53.154;18.136;2022-09-14T04:11:19;15.47;;;11.47;;
25868;SDS011;13688;53.154;18.136;2022-09-14T04:16:41;14.30;;;10.10;;
25868;SDS011;13688;53.154;18.136;2022-09-14T04:22:04;14.38;;;10.20;;
25868;SDS011;13688;53.154;18.136;2022-09-14T04:27:26;15.55;;;9.55;;
25868;SDS011;13688;53.154;18.136;2022-09-14T04:32:52;15.55;;;8.38;;
25868;SDS011;13688;53.154;18.136;2022-09-14T04:38:14;11.93;;;7.47;;
25868;SDS011;13688;53.154;18.136;2022-09-14T04:43:38;11.00;;;7.17;;
25868;SDS011;13688;53.154;18.136;2022-09-14T04:49:01;11.12;;;7.47;;
25868;SDS011;13688;53.154;18.136;2022-09-14T04:54:24;14.00;;;6.55;;
25868;SDS011;13688;53.154;18.136;2022-09-14T04:59:46;13.27;;;6.87;;
25868;SDS011;13688;53.154;18.136;2022-09-14T05:05:09;9.35;;;6.75;;
25868;SDS011;13688;53.154;18.136;2022-09-14T05:10:31;11.10;;;7.35;;
25868;SDS011;13688;53.154;18.136;2022-09-14T05:15:53;12.58;;;7.42;;
25868;SDS011;13688;53.154;18.136;2022-09-14T05:21:30;12.70;;;6.45;;
25868;SDS011;13688;53.154;18.136;2022-09-14T05:26:53;9.03;;;6.07;;
25868;SDS011;13688;53.154;18.136;2022-09-14T05:32:15;10.90;;;5.70;;
25868;SDS011;13688;53.154;18.136;2022-09-14T05:37:37;10.67;;;5.93;;
25868;SDS011;13688;53.154;18.136;2022-09-14T05:43:00;7.75;;;4.62;;
25868;SDS011;13688;53.154;18.136;2022-09-14T05:48:24;7.40;;;4.80;;
25868;SDS011;13688;53.154;18.136;2022-09-14T05:53:48;11.57;;;4.93;;
25868;SDS011;13688;53.154;18.136;2022-09-14T05:59:14;8.08;;;4.37;;
25868;SDS011;13688;53.154;18.136;2022-09-14T06:04:36;7.62;;;3.80;;
25868;SDS011;13688;53.154;18.136;2022-09-14T06:09:59;7.10;;;3.50;;
25868;SDS011;13688;53.154;18.136;2022-09-14T06:15:22;10.53;;;3.92;;
25868;SDS011;13688;53.154;18.136;2022-09-14T06:20:48;8.43;;;3.10;;
25868;SDS011;13688;53.154;18.136;2022-09-14T06:26:12;8.40;;;2.45;;
25868;SDS011;13688;53.154;18.136;2022-09-14T06:31:34;11.45;;;2.47;;
25868;SDS011;13688;53.154;18.136;2022-09-14T06:36:56;11.60;;;2.80;;
25868;SDS011;13688;53.154;18.136;2022-09-14T06:42:18;6.87;;;2.02;;
25868;SDS011;13688;53.154;18.136;2022-09-14T06:47:41;7.83;;;1.93;;
25868;SDS011;13688;53.154;18.136;2022-09-14T06:53:03;4.67;;;2.03;;
25868;SDS011;13688;53.154;18.136;2022-09-14T06:58:26;8.68;;;2.37;;
25868;SDS011;13688;53.154;18.136;2022-09-14T07:03:50;8.68;;;2.02;;
25868;SDS011;13688;53.154;18.136;2022-09-14T07:09:14;8.85;;;1.82;;
25868;SDS011;13688;53.154;18.136;2022-09-14T07:14:37;4.77;;;1.77;;
25868;SDS011;13688;53.154;18.136;2022-09-14T07:20:00;5.95;;;1.80;;
25868;SDS011;13688;53.154;18.136;2022-09-14T07:25:22;7.13;;;2.13;;
25868;SDS011;13688;53.154;18.136;2022-09-14T07:30:44;7.97;;;1.95;;
25868;SDS011;13688;53.154;18.136;2022-09-14T07:36:08;5.17;;;1.85;;
25868;SDS011;13688;53.154;18.136;2022-09-14T07:41:33;7.25;;;2.17;;
25868;SDS011;13688;53.154;18.136;2022-09-14T07:46:56;6.97;;;2.00;;
25868;SDS011;13688;53.154;18.136;2022-09-14T07:52:18;8.65;;;1.90;;
25868;SDS011;13688;53.154;18.136;2022-09-14T07:57:41;11.60;;;1.80;;
25868;SDS011;13688;53.154;18.136;2022-09-14T08:03:04;6.37;;;1.77;;
25868;SDS011;13688;53.154;18.136;2022-09-14T08:08:27;5.97;;;1.65;;
25868;SDS011;13688;53.154;18.136;2022-09-14T08:13:53;6.35;;;1.62;;
25868;SDS011;13688;53.154;18.136;2022-09-14T08:19:20;7.70;;;1.67;;
25868;SDS011;13688;53.154;18.136;2022-09-14T08:24:44;6.83;;;2.10;;
25868;SDS011;13688;53.154;18.136;2022-09-14T08:30:07;7.83;;;2.27;;
25868;SDS011;13688;53.154;18.136;2022-09-14T08:35:30;7.00;;;1.70;;
25868;SDS011;13688;53.154;18.136;2022-09-14T08:46:48;7.30;;;1.80;;
25868;SDS011;13688;53.154;18.136;2022-09-14T08:52:22;5.33;;;1.80;;
25868;SDS011;13688;53.154;18.136;2022-09-14T09:09:06;5.00;;;1.37;;
25868;SDS011;13688;53.154;18.136;2022-09-14T09:14:53;8.77;;;1.83;;
25868;SDS011;13688;53.154;18.136;2022-09-14T09:20:25;6.53;;;1.37;;
25868;SDS011;13688;53.154;18.136;2022-09-14T09:26:03;6.03;;;1.33;;
25868;SDS011;13688;53.154;18.136;2022-09-14T09:31:36;5.63;;;1.33;;
25868;SDS011;13688;53.154;18.136;2022-09-14T09:37:01;4.67;;;1.05;;
25868;SDS011;13688;53.154;18.136;2022-09-14T09:42:31;4.03;;;1.00;;
25868;SDS011;13688;53.154;18.136;2022-09-14T09:48:15;3.63;;;1.20;;
25868;SDS011;13688;53.154;18.136;2022-09-14T09:59:36;5.67;;;1.30;;
25868;SDS011;13688;53.154;18.136;2022-09-14T10:05:17;4.42;;;0.80;;
25868;SDS011;13688;53.154;18.136;2022-09-14T10:16:15;4.72;;;1.00;;
25868;SDS011;13688;53.154;18.136;2022-09-14T10:21:59;4.65;;;1.10;;
25868;SDS011;13688;53.154;18.136;2022-09-14T10:27:34;4.20;;;1.00;;
25868;SDS011;13688;53.154;18.136;2022-09-14T10:33:01;5.15;;;0.93;;
25868;SDS011;13688;53.154;18.136;2022-09-14T10:38:44;6.50;;;1.10;;
25868;SDS011;13688;53.154;18.136;2022-09-14T11:13:29;3.37;;;1.25;;
25868;SDS011;13688;53.154;18.136;2022-09-14T11:24:58;6.00;;;1.60;;
25868;SDS011;13688;53.154;18.136;2022-09-14T11:30:30;4.93;;;1.67;;
25868;SDS011;13688;53.154;18.136;2022-09-14T11:36:08;6.27;;;1.43;;
25868;SDS011;13688;53.154;18.136;2022-09-14T11:47:18;9.53;;;1.77;;
25868;SDS011;13688;53.154;18.136;2022-09-14T11:52:43;6.17;;;1.50;;
25868;SDS011;13688;53.154;18.136;2022-09-14T11:58:25;6.90;;;1.90;;
25868;SDS011;13688;53.154;18.136;2022-09-14T12:14:48;6.43;;;1.70;;
25868;SDS011;13688;53.154;18.136;2022-09-14T12:20:31;3.63;;;1.53;;
25868;SDS011;13688;53.154;18.136;2022-09-14T12:26:05;5.87;;;1.40;;
25868;SDS011;13688;53.154;18.136;2022-09-14T12:42:43;9.65;;;1.72;;
25868;SDS011;13688;53.154;18.136;2022-09-14T12:48:07;3.87;;;1.63;;
25868;SDS011;13688;53.154;18.136;2022-09-14T13:00:10;6.67;;;2.10;;
25868;SDS011;13688;53.154;18.136;2022-09-14T13:05:36;10.07;;;1.70;;
25868;SDS011;13688;53.154;18.136;2022-09-14T13:10:59;6.47;;;2.00;;
25868;SDS011;13688;53.154;18.136;2022-09-14T13:16:40;6.20;;;2.00;;
25868;SDS011;13688;53.154;18.136;2022-09-14T13:22:18;5.83;;;1.50;;
25868;SDS011;13688;53.154;18.136;2022-09-14T13:27:43;9.20;;;2.20;;
25868;SDS011;13688;53.154;18.136;2022-09-14T13:33:15;8.47;;;1.73;;
25868;SDS011;13688;53.154;18.136;2022-09-14T13:38:40;6.83;;;1.70;;
25868;SDS011;13688;53.154;18.136;2022-09-14T13:44:04;6.77;;;1.70;;
25868;SDS011;13688;53.154;18.136;2022-09-14T13:49:27;7.63;;;2.87;;
25868;SDS011;13688;53.154;18.136;2022-09-14T13:54:54;5.07;;;1.60;;
25868;SDS011;13688;53.154;18.136;2022-09-14T14:00:26;6.20;;;2.00;;
25868;SDS011;13688;53.154;18.136;2022-09-14T14:05:59;6.97;;;1.72;;
25868;SDS011;13688;53.154;18.136;2022-09-14T14:11:42;5.47;;;1.70;;
25868;SDS011;13688;53.154;18.136;2022-09-14T14:17:09;8.25;;;2.10;;
25868;SDS011;13688;53.154;18.136;2022-09-14T14:22:52;4.42;;;1.80;;
25868;SDS011;13688;53.154;18.136;2022-09-14T14:28:29;6.55;;;2.30;;
25868;SDS011;13688;53.154;18.136;2022-09-14T14:33:52;9.53;;;2.10;;
25868;SDS011;13688;53.154;18.136;2022-09-14T14:39:17;7.93;;;2.33;;
25868;SDS011;13688;53.154;18.136;2022-09-14T14:44:41;5.97;;;1.70;;
25868;SDS011;13688;53.154;18.136;2022-09-14T14:50:12;4.80;;;1.70;;
25868;SDS011;13688;53.154;18.136;2022-09-14T14:55:38;5.70;;;2.05;;
25868;SDS011;13688;53.154;18.136;2022-09-14T15:01:01;4.47;;;2.00;;
25868;SDS011;13688;53.154;18.136;2022-09-14T15:06:25;6.85;;;2.10;;
25868;SDS011;13688;53.154;18.136;2022-09-14T15:11:48;4.77;;;1.90;;
25868;SDS011;13688;53.154;18.136;2022-09-14T15:17:12;8.37;;;2.20;;
25868;SDS011;13688;53.154;18.136;2022-09-14T15:22:34;8.35;;;1.92;;
25868;SDS011;13688;53.154;18.136;2022-09-14T15:27:58;6.20;;;2.07;;
25868;SDS011;13688;53.154;18.136;2022-09-14T15:33:21;8.68;;;2.15;;
25868;SDS011;13688;53.154;18.136;2022-09-14T15:38:43;6.75;;;2.10;;
25868;SDS011;13688;53.154;18.136;2022-09-14T15:44:06;6.50;;;2.15;;
25868;SDS011;13688;53.154;18.136;2022-09-14T15:49:28;8.23;;;2.10;;
25868;SDS011;13688;53.154;18.136;2022-09-14T15:54:51;6.17;;;2.10;;
25868;SDS011;13688;53.154;18.136;2022-09-14T16:00:14;7.20;;;2.10;;
25868;SDS011;13688;53.154;18.136;2022-09-14T16:05:37;5.58;;;2.08;;
25868;SDS011;13688;53.154;18.136;2022-09-14T16:11:01;7.72;;;2.10;;
25868;SDS011;13688;53.154;18.136;2022-09-14T16:16:24;7.47;;;2.13;;
25868;SDS011;13688;53.154;18.136;2022-09-14T16:21:47;10.55;;;2.20;;
25868;SDS011;13688;53.154;18.136;2022-09-14T16:27:09;7.17;;;2.37;;
25868;SDS011;13688;53.154;18.136;2022-09-14T16:32:32;5.28;;;2.05;;
25868;SDS011;13688;53.154;18.136;2022-09-14T16:37:55;7.30;;;2.33;;
25868;SDS011;13688;53.154;18.136;2022-09-14T16:43:18;5.50;;;1.77;;
25868;SDS011;13688;53.154;18.136;2022-09-14T16:48:45;11.85;;;2.33;;
25868;SDS011;13688;53.154;18.136;2022-09-14T16:54:09;8.23;;;2.67;;
25868;SDS011;13688;53.154;18.136;2022-09-14T16:59:34;9.70;;;2.30;;
25868;SDS011;13688;53.154;18.136;2022-09-14T17:04:56;7.17;;;2.27;;
25868;SDS011;13688;53.154;18.136;2022-09-14T17:10:18;7.03;;;2.17;;
25868;SDS011;13688;53.154;18.136;2022-09-14T17:15:42;9.53;;;2.35;;
25868;SDS011;13688;53.154;18.136;2022-09-14T17:21:18;13.93;;;7.73;;
25868;SDS011;13688;53.154;18.136;2022-09-14T17:26:43;8.63;;;2.47;;
25868;SDS011;13688;53.154;18.136;2022-09-14T17:32:06;5.97;;;1.90;;
25868;SDS011;13688;53.154;18.136;2022-09-14T17:37:29;10.50;;;2.25;;
25868;SDS011;13688;53.154;18.136;2022-09-14T17:42:52;7.00;;;2.10;;
25868;SDS011;13688;53.154;18.136;2022-09-14T17:48:15;6.90;;;2.30;;
25868;SDS011;13688;53.154;18.136;2022-09-14T17:53:45;7.50;;;2.67;;
25868;SDS011;13688;53.154;18.136;2022-09-14T17:59:11;8.97;;;2.73;;
25868;SDS011;13688;53.154;18.136;2022-09-14T18:04:34;11.70;;;3.33;;
25868;SDS011;13688;53.154;18.136;2022-09-14T18:09:57;18.20;;;10.53;;
25868;SDS011;13688;53.154;18.136;2022-09-14T18:15:20;8.17;;;3.70;;
25868;SDS011;13688;53.154;18.136;2022-09-14T18:20:44;7.83;;;3.07;;
25868;SDS011;13688;53.154;18.136;2022-09-14T18:26:07;8.33;;;3.33;;
25868;SDS011;13688;53.154;18.136;2022-09-14T18:31:29;10.57;;;3.00;;
25868;SDS011;13688;53.154;18.136;2022-09-14T18:36:52;9.10;;;3.87;;
25868;SDS011;13688;53.154;18.136;2022-09-14T18:42:14;8.50;;;3.27;;
25868;SDS011;13688;53.154;18.136;2022-09-14T18:47:37;11.73;;;3.87;;
25868;SDS011;13688;53.154;18.136;2022-09-14T18:53:00;10.50;;;3.70;;
25868;SDS011;13688;53.154;18.136;2022-09-14T18:58:23;10.50;;;3.67;;
25868;SDS011;13688;53.154;18.136;2022-09-14T19:03:52;9.57;;;3.80;;
25868;SDS011;13688;53.154;18.136;2022-09-14T19:09:18;11.87;;;3.77;;
25868;SDS011;13688;53.154;18.136;2022-09-14T19:14:40;8.90;;;3.55;;
25868;SDS011;13688;53.154;18.136;2022-09-14T19:20:03;8.30;;;3.07;;
25868;SDS011;13688;53.154;18.136;2022-09-14T19:25:25;10.28;;;3.90;;
25868;SDS011;13688;53.154;18.136;2022-09-14T19:30:54;8.30;;;3.17;;
25868;SDS011;13688;53.154;18.136;2022-09-14T19:36:31;9.80;;;3.00;;
25868;SDS011;13688;53.154;18.136;2022-09-14T19:41:54;9.23;;;3.30;;
25868;SDS011;13688;53.154;18.136;2022-09-14T19:47:17;7.37;;;3.20;;
25868;SDS011;13688;53.154;18.136;2022-09-14T19:52:39;7.60;;;3.35;;
25868;SDS011;13688;53.154;18.136;2022-09-14T19:58:03;9.63;;;3.70;;
25868;SDS011;13688;53.154;18.136;2022-09-14T20:03:25;8.53;;;2.80;;
25868;SDS011;13688;53.154;18.136;2022-09-14T20:08:49;10.28;;;3.55;;
25868;SDS011;13688;53.154;18.136;2022-09-14T20:14:21;11.77;;;3.80;;
25868;SDS011;13688;53.154;18.136;2022-09-14T20:19:43;10.48;;;4.03;;
25868;SDS011;13688;53.154;18.136;2022-09-14T20:25:06;12.20;;;4.62;;
25868;SDS011;13688;53.154;18.136;2022-09-14T20:30:28;12.73;;;4.08;;
25868;SDS011;13688;53.154;18.136;2022-09-14T20:36:00;8.93;;;3.60;;
25868;SDS011;13688;53.154;18.136;2022-09-14T20:41:28;9.83;;;3.80;;
25868;SDS011;13688;53.154;18.136;2022-09-14T20:46:51;11.40;;;4.28;;
25868;SDS011;13688;53.154;18.136;2022-09-14T20:52:13;12.68;;;5.05;;
25868;SDS011;13688;53.154;18.136;2022-09-14T20:57:36;11.73;;;4.03;;
25868;SDS011;13688;53.154;18.136;2022-09-14T21:02:59;8.88;;;4.22;;
25868;SDS011;13688;53.154;18.136;2022-09-14T21:08:21;10.57;;;3.73;;
25868;SDS011;13688;53.154;18.136;2022-09-14T21:13:45;9.37;;;4.00;;
25868;SDS011;13688;53.154;18.136;2022-09-14T21:19:13;10.60;;;3.50;;
25868;SDS011;13688;53.154;18.136;2022-09-14T21:29:55;8.53;;;4.23;;
25868;SDS011;13688;53.154;18.136;2022-09-14T21:35:18;10.38;;;4.08;;
25868;SDS011;13688;53.154;18.136;2022-09-14T21:40:42;10.95;;;3.98;;
25868;SDS011;13688;53.154;18.136;2022-09-14T21:46:04;16.67;;;5.13;;
25868;SDS011;13688;53.154;18.136;2022-09-14T21:51:35;8.07;;;4.23;;
25868;SDS011;13688;53.154;18.136;2022-09-14T22:02:14;11.28;;;3.90;;
25868;SDS011;13688;53.154;18.136;2022-09-14T22:07:37;12.33;;;4.42;;
25868;SDS011;13688;53.154;18.136;2022-09-14T22:13:00;8.05;;;3.80;;
25868;SDS011;13688;53.154;18.136;2022-09-14T22:18:22;10.48;;;4.33;;
25868;SDS011;13688;53.154;18.136;2022-09-14T22:23:49;11.55;;;4.55;;
25868;SDS011;13688;53.154;18.136;2022-09-14T22:29:15;9.38;;;4.05;;
25868;SDS011;13688;53.154;18.136;2022-09-14T22:34:38;11.57;;;4.08;;
25868;SDS011;13688;53.154;18.136;2022-09-14T22:40:00;13.03;;;4.42;;
25868;SDS011;13688;53.154;18.136;2022-09-14T22:45:23;8.20;;;3.85;;
25868;SDS011;13688;53.154;18.136;2022-09-14T22:50:46;9.63;;;3.58;;
25868;SDS011;13688;53.154;18.136;2022-09-14T22:56:13;12.90;;;4.00;;
25868;SDS011;13688;53.154;18.136;2022-09-14T23:01:38;9.90;;;3.77;;
25868;SDS011;13688;53.154;18.136;2022-09-14T23:07:01;13.05;;;3.77;;
25868;SDS011;13688;53.154;18.136;2022-09-14T23:12:23;10.90;;;3.92;;
25868;SDS011;13688;53.154;18.136;2022-09-14T23:17:45;12.47;;;4.33;;
25868;SDS011;13688;53.154;18.136;2022-09-14T23:23:09;11.10;;;3.70;;
25868;SDS011;13688;53.154;18.136;2022-09-14T23:28:32;12.00;;;3.92;;
25868;SDS011;13688;53.154;18.136;2022-09-14T23:33:58;9.05;;;3.80;;
25868;SDS011;13688;53.154;18.136;2022-09-14T23:39:20;11.18;;;4.00;;
25868;SDS011;13688;53.154;18.136;2022-09-14T23:44:43;12.43;;;4.65;;
25868;SDS011;13688;53.154;18.136;2022-09-14T23:50:06;10.48;;;4.37;;
25868;SDS011;13688;53.154;18.136;2022-09-14T23:55:30;12.13;;;4.58;;
